sensor_id;sensor_type;location;lat;lon;timestamp;P1;durP1;ratioP1;P2;durP2;ratioP2
18399;SDS011;9326;49.468;11.008;2023-10-09T00:01:25;13.27;;;8.30;;
18399;SDS011;9326;49.468;11.008;2023-10-09T00:03:52;11.00;;;7.93;;
18399;SDS011;9326;49.468;11.008;2023-10-09T00:06:21;11.10;;;8.00;;
18399;SDS011;9326;49.468;11.008;2023-10-09T00:08:56;10.50;;;8.57;;
18399;SDS011;9326;49.468;11.008;2023-10-09T00:11:23;11.27;;;8.80;;
18399;SDS011;9326;49.468;11.008;2023-10-09T00:13:56;11.73;;;7.80;;
18399;SDS011;9326;49.468;11.008;2023-10-09T00:16:24;10.33;;;7.80;;
18399;SDS011;9326;49.468;11.008;2023-10-09T00:18:59;9.73;;;7.97;;
18399;SDS011;9326;49.468;11.008;2023-10-09T00:21:39;11.17;;;8.53;;
18399;SDS011;9326;49.468;11.008;2023-10-09T00:24:07;10.50;;;8.27;;
18399;SDS011;9326;49.468;11.008;2023-10-09T00:26:38;11.27;;;8.07;;
18399;SDS011;9326;49.468;11.008;2023-10-09T00:29:12;10.10;;;8.30;;
18399;SDS011;9326;49.468;11.008;2023-10-09T00:31:47;10.27;;;7.97;;
18399;SDS011;9326;49.468;11.008;2023-10-09T00:34:20;12.77;;;8.27;;
18399;SDS011;9326;49.468;11.008;2023-10-09T00:36:47;10.40;;;8.27;;
18399;SDS011;9326;49.468;11.008;2023-10-09T00:39:16;11.87;;;8.17;;
18399;SDS011;9326;49.468;11.008;2023-10-09T00:41:57;10.70;;;7.90;;
18399;SDS011;9326;49.468;11.008;2023-10-09T00:44:27;9.53;;;8.20;;
18399;SDS011;9326;49.468;11.008;2023-10-09T00:47:03;9.93;;;8.23;;
18399;SDS011;9326;49.468;11.008;2023-10-09T00:49:45;9.57;;;7.73;;
18399;SDS011;9326;49.468;11.008;2023-10-09T00:52:12;9.67;;;8.03;;
18399;SDS011;9326;49.468;11.008;2023-10-09T00:54:47;9.43;;;7.77;;
18399;SDS011;9326;49.468;11.008;2023-10-09T00:57:17;10.10;;;8.40;;
18399;SDS011;9326;49.468;11.008;2023-10-09T00:59:51;9.70;;;7.63;;
18399;SDS011;9326;49.468;11.008;2023-10-09T01:02:24;10.13;;;8.07;;
18399;SDS011;9326;49.468;11.008;2023-10-09T01:05:00;11.80;;;8.27;;
18399;SDS011;9326;49.468;11.008;2023-10-09T01:07:35;12.50;;;7.80;;
18399;SDS011;9326;49.468;11.008;2023-10-09T01:10:03;12.10;;;8.20;;
18399;SDS011;9326;49.468;11.008;2023-10-09T01:12:53;12.13;;;8.40;;
18399;SDS011;9326;49.468;11.008;2023-10-09T01:15:22;10.97;;;8.17;;
18399;SDS011;9326;49.468;11.008;2023-10-09T01:18:09;13.47;;;8.43;;
18399;SDS011;9326;49.468;11.008;2023-10-09T01:20:37;11.63;;;8.50;;
18399;SDS011;9326;49.468;11.008;2023-10-09T01:23:11;11.00;;;8.17;;
18399;SDS011;9326;49.468;11.008;2023-10-09T01:25:39;11.37;;;8.13;;
18399;SDS011;9326;49.468;11.008;2023-10-09T01:28:14;13.80;;;8.10;;
18399;SDS011;9326;49.468;11.008;2023-10-09T01:30:42;11.83;;;8.57;;
18399;SDS011;9326;49.468;11.008;2023-10-09T01:33:10;12.90;;;9.37;;
18399;SDS011;9326;49.468;11.008;2023-10-09T01:35:44;12.30;;;8.67;;
18399;SDS011;9326;49.468;11.008;2023-10-09T01:38:16;11.20;;;8.73;;
18399;SDS011;9326;49.468;11.008;2023-10-09T01:40:44;12.63;;;8.67;;
18399;SDS011;9326;49.468;11.008;2023-10-09T01:43:16;11.73;;;8.23;;
18399;SDS011;9326;49.468;11.008;2023-10-09T01:45:45;12.13;;;8.20;;
18399;SDS011;9326;49.468;11.008;2023-10-09T01:48:12;12.47;;;8.17;;
18399;SDS011;9326;49.468;11.008;2023-10-09T01:50:48;11.60;;;8.27;;
18399;SDS011;9326;49.468;11.008;2023-10-09T01:53:17;11.50;;;8.27;;
18399;SDS011;9326;49.468;11.008;2023-10-09T01:55:47;9.97;;;7.90;;
18399;SDS011;9326;49.468;11.008;2023-10-09T01:58:14;11.23;;;7.70;;
18399;SDS011;9326;49.468;11.008;2023-10-09T02:00:49;10.93;;;7.40;;
18399;SDS011;9326;49.468;11.008;2023-10-09T02:03:19;9.70;;;8.00;;
18399;SDS011;9326;49.468;11.008;2023-10-09T02:05:51;11.17;;;8.10;;
18399;SDS011;9326;49.468;11.008;2023-10-09T02:08:25;9.87;;;7.90;;
18399;SDS011;9326;49.468;11.008;2023-10-09T02:10:54;9.80;;;8.10;;
18399;SDS011;9326;49.468;11.008;2023-10-09T02:13:21;13.17;;;8.57;;
18399;SDS011;9326;49.468;11.008;2023-10-09T02:15:55;11.40;;;8.57;;
18399;SDS011;9326;49.468;11.008;2023-10-09T02:18:38;12.03;;;8.40;;
18399;SDS011;9326;49.468;11.008;2023-10-09T02:21:19;10.87;;;8.00;;
18399;SDS011;9326;49.468;11.008;2023-10-09T02:23:59;9.67;;;7.50;;
18399;SDS011;9326;49.468;11.008;2023-10-09T02:26:29;10.60;;;8.33;;
18399;SDS011;9326;49.468;11.008;2023-10-09T02:29:18;11.70;;;8.60;;
18399;SDS011;9326;49.468;11.008;2023-10-09T02:31:49;12.33;;;8.57;;
18399;SDS011;9326;49.468;11.008;2023-10-09T02:34:20;12.23;;;8.30;;
18399;SDS011;9326;49.468;11.008;2023-10-09T02:36:49;13.77;;;8.57;;
18399;SDS011;9326;49.468;11.008;2023-10-09T02:39:23;11.27;;;8.30;;
18399;SDS011;9326;49.468;11.008;2023-10-09T02:41:51;10.03;;;7.83;;
18399;SDS011;9326;49.468;11.008;2023-10-09T02:44:25;12.50;;;8.23;;
18399;SDS011;9326;49.468;11.008;2023-10-09T02:46:55;11.27;;;8.30;;
18399;SDS011;9326;49.468;11.008;2023-10-09T02:49:22;13.90;;;8.17;;
18399;SDS011;9326;49.468;11.008;2023-10-09T02:51:51;12.07;;;8.47;;
18399;SDS011;9326;49.468;11.008;2023-10-09T02:54:19;8.50;;;7.63;;
18399;SDS011;9326;49.468;11.008;2023-10-09T02:57:01;10.67;;;7.83;;
18399;SDS011;9326;49.468;11.008;2023-10-09T02:59:32;10.47;;;8.00;;
18399;SDS011;9326;49.468;11.008;2023-10-09T03:02:02;9.67;;;7.77;;
18399;SDS011;9326;49.468;11.008;2023-10-09T03:04:29;11.73;;;7.90;;
18399;SDS011;9326;49.468;11.008;2023-10-09T03:06:56;9.87;;;7.57;;
18399;SDS011;9326;49.468;11.008;2023-10-09T03:09:24;11.17;;;7.77;;
18399;SDS011;9326;49.468;11.008;2023-10-09T03:11:55;11.03;;;7.33;;
18399;SDS011;9326;49.468;11.008;2023-10-09T03:14:28;11.00;;;8.07;;
18399;SDS011;9326;49.468;11.008;2023-10-09T03:16:55;12.57;;;8.27;;
18399;SDS011;9326;49.468;11.008;2023-10-09T03:19:24;9.50;;;7.90;;
18399;SDS011;9326;49.468;11.008;2023-10-09T03:21:53;12.23;;;8.13;;
18399;SDS011;9326;49.468;11.008;2023-10-09T03:24:22;13.33;;;8.70;;
18399;SDS011;9326;49.468;11.008;2023-10-09T03:26:49;10.97;;;8.20;;
18399;SDS011;9326;49.468;11.008;2023-10-09T03:29:20;11.67;;;7.93;;
18399;SDS011;9326;49.468;11.008;2023-10-09T03:31:49;12.47;;;8.97;;
18399;SDS011;9326;49.468;11.008;2023-10-09T03:34:16;10.47;;;8.33;;
18399;SDS011;9326;49.468;11.008;2023-10-09T03:36:44;11.83;;;8.20;;
18399;SDS011;9326;49.468;11.008;2023-10-09T03:39:13;12.63;;;8.83;;
18399;SDS011;9326;49.468;11.008;2023-10-09T03:41:49;14.63;;;8.70;;
18399;SDS011;9326;49.468;11.008;2023-10-09T03:44:17;12.27;;;8.50;;
18399;SDS011;9326;49.468;11.008;2023-10-09T03:46:44;11.57;;;8.00;;
18399;SDS011;9326;49.468;11.008;2023-10-09T03:49:12;11.27;;;8.10;;
18399;SDS011;9326;49.468;11.008;2023-10-09T03:51:47;10.50;;;8.60;;
18399;SDS011;9326;49.468;11.008;2023-10-09T03:54:15;10.47;;;8.20;;
18399;SDS011;9326;49.468;11.008;2023-10-09T03:56:45;11.43;;;8.30;;
18399;SDS011;9326;49.468;11.008;2023-10-09T03:59:14;11.23;;;8.10;;
18399;SDS011;9326;49.468;11.008;2023-10-09T04:01:45;12.03;;;8.90;;
18399;SDS011;9326;49.468;11.008;2023-10-09T04:04:15;12.73;;;8.30;;
18399;SDS011;9326;49.468;11.008;2023-10-09T04:06:42;12.63;;;8.10;;
18399;SDS011;9326;49.468;11.008;2023-10-09T04:09:11;11.77;;;8.20;;
18399;SDS011;9326;49.468;11.008;2023-10-09T04:11:54;12.77;;;8.07;;
18399;SDS011;9326;49.468;11.008;2023-10-09T04:14:39;12.93;;;7.97;;
18399;SDS011;9326;49.468;11.008;2023-10-09T04:17:13;11.00;;;8.10;;
18399;SDS011;9326;49.468;11.008;2023-10-09T04:19:56;11.20;;;8.17;;
18399;SDS011;9326;49.468;11.008;2023-10-09T04:22:37;11.87;;;7.93;;
18399;SDS011;9326;49.468;11.008;2023-10-09T04:25:07;8.50;;;7.60;;
18399;SDS011;9326;49.468;11.008;2023-10-09T04:27:39;11.43;;;8.30;;
18399;SDS011;9326;49.468;11.008;2023-10-09T04:30:07;10.90;;;7.80;;
18399;SDS011;9326;49.468;11.008;2023-10-09T04:32:40;8.53;;;7.63;;
18399;SDS011;9326;49.468;11.008;2023-10-09T04:35:11;10.87;;;8.57;;
18399;SDS011;9326;49.468;11.008;2023-10-09T04:37:48;12.30;;;7.97;;
18399;SDS011;9326;49.468;11.008;2023-10-09T04:40:25;11.80;;;8.03;;
18399;SDS011;9326;49.468;11.008;2023-10-09T04:43:23;10.90;;;8.73;;
18399;SDS011;9326;49.468;11.008;2023-10-09T04:45:51;11.30;;;8.10;;
18399;SDS011;9326;49.468;11.008;2023-10-09T04:48:41;11.37;;;7.93;;
18399;SDS011;9326;49.468;11.008;2023-10-09T04:51:10;11.97;;;8.47;;
18399;SDS011;9326;49.468;11.008;2023-10-09T04:53:46;11.50;;;8.47;;
18399;SDS011;9326;49.468;11.008;2023-10-09T04:56:20;15.50;;;8.97;;
18399;SDS011;9326;49.468;11.008;2023-10-09T04:58:50;12.73;;;8.23;;
18399;SDS011;9326;49.468;11.008;2023-10-09T05:01:28;14.67;;;8.80;;
18399;SDS011;9326;49.468;11.008;2023-10-09T05:04:08;12.17;;;9.07;;
18399;SDS011;9326;49.468;11.008;2023-10-09T05:06:52;12.20;;;8.93;;
18399;SDS011;9326;49.468;11.008;2023-10-09T05:09:22;15.97;;;8.83;;
18399;SDS011;9326;49.468;11.008;2023-10-09T05:11:49;12.40;;;8.57;;
18399;SDS011;9326;49.468;11.008;2023-10-09T05:14:21;11.63;;;8.70;;
18399;SDS011;9326;49.468;11.008;2023-10-09T05:17:02;11.10;;;8.10;;
18399;SDS011;9326;49.468;11.008;2023-10-09T05:19:29;11.37;;;8.37;;
18399;SDS011;9326;49.468;11.008;2023-10-09T05:22:19;11.57;;;8.00;;
18399;SDS011;9326;49.468;11.008;2023-10-09T05:25:01;12.80;;;8.50;;
18399;SDS011;9326;49.468;11.008;2023-10-09T05:27:39;12.30;;;9.50;;
18399;SDS011;9326;49.468;11.008;2023-10-09T05:30:16;9.87;;;7.90;;
18399;SDS011;9326;49.468;11.008;2023-10-09T05:32:58;11.47;;;7.87;;
18399;SDS011;9326;49.468;11.008;2023-10-09T05:35:30;12.63;;;8.07;;
18399;SDS011;9326;49.468;11.008;2023-10-09T05:38:07;12.07;;;8.10;;
18399;SDS011;9326;49.468;11.008;2023-10-09T05:40:48;9.10;;;7.57;;
18399;SDS011;9326;49.468;11.008;2023-10-09T05:43:18;11.77;;;8.00;;
18399;SDS011;9326;49.468;11.008;2023-10-09T05:46:01;11.97;;;8.37;;
18399;SDS011;9326;49.468;11.008;2023-10-09T05:48:34;13.97;;;8.30;;
18399;SDS011;9326;49.468;11.008;2023-10-09T05:51:20;10.20;;;8.43;;
18399;SDS011;9326;49.468;11.008;2023-10-09T05:54:04;10.60;;;8.43;;
18399;SDS011;9326;49.468;11.008;2023-10-09T05:56:48;13.23;;;8.87;;
18399;SDS011;9326;49.468;11.008;2023-10-09T05:59:33;12.60;;;8.67;;
18399;SDS011;9326;49.468;11.008;2023-10-09T06:02:19;14.50;;;9.30;;
18399;SDS011;9326;49.468;11.008;2023-10-09T06:05:04;18.03;;;9.37;;
18399;SDS011;9326;49.468;11.008;2023-10-09T06:07:52;15.07;;;9.27;;
18399;SDS011;9326;49.468;11.008;2023-10-09T06:10:31;14.33;;;9.17;;
18399;SDS011;9326;49.468;11.008;2023-10-09T06:13:07;10.43;;;8.40;;
18399;SDS011;9326;49.468;11.008;2023-10-09T06:16:01;12.47;;;8.27;;
18399;SDS011;9326;49.468;11.008;2023-10-09T06:18:53;13.87;;;8.97;;
18399;SDS011;9326;49.468;11.008;2023-10-09T06:21:32;12.60;;;8.43;;
18399;SDS011;9326;49.468;11.008;2023-10-09T06:24:05;11.70;;;8.40;;
18399;SDS011;9326;49.468;11.008;2023-10-09T06:26:40;11.80;;;8.27;;
18399;SDS011;9326;49.468;11.008;2023-10-09T06:29:16;13.13;;;8.30;;
18399;SDS011;9326;49.468;11.008;2023-10-09T06:31:58;12.37;;;7.63;;
18399;SDS011;9326;49.468;11.008;2023-10-09T06:34:42;11.23;;;7.70;;
18399;SDS011;9326;49.468;11.008;2023-10-09T06:37:11;11.13;;;7.50;;
18399;SDS011;9326;49.468;11.008;2023-10-09T06:39:59;15.63;;;7.80;;
18399;SDS011;9326;49.468;11.008;2023-10-09T06:42:48;10.63;;;7.87;;
18399;SDS011;9326;49.468;11.008;2023-10-09T06:45:20;15.10;;;8.40;;
18399;SDS011;9326;49.468;11.008;2023-10-09T06:47:53;13.17;;;8.43;;
18399;SDS011;9326;49.468;11.008;2023-10-09T06:50:22;15.90;;;8.83;;
18399;SDS011;9326;49.468;11.008;2023-10-09T06:53:13;12.70;;;8.30;;
18399;SDS011;9326;49.468;11.008;2023-10-09T06:55:45;13.90;;;8.17;;
18399;SDS011;9326;49.468;11.008;2023-10-09T06:58:17;14.50;;;8.77;;
18399;SDS011;9326;49.468;11.008;2023-10-09T07:00:48;11.77;;;8.03;;
18399;SDS011;9326;49.468;11.008;2023-10-09T07:03:40;15.47;;;7.87;;
18399;SDS011;9326;49.468;11.008;2023-10-09T07:06:19;11.53;;;7.73;;
18399;SDS011;9326;49.468;11.008;2023-10-09T07:08:49;11.33;;;7.57;;
18399;SDS011;9326;49.468;11.008;2023-10-09T07:11:38;11.63;;;7.37;;
18399;SDS011;9326;49.468;11.008;2023-10-09T07:14:24;11.43;;;7.20;;
18399;SDS011;9326;49.468;11.008;2023-10-09T07:17:09;13.50;;;7.30;;
18399;SDS011;9326;49.468;11.008;2023-10-09T07:19:47;14.43;;;7.30;;
18399;SDS011;9326;49.468;11.008;2023-10-09T07:22:35;11.30;;;7.03;;
18399;SDS011;9326;49.468;11.008;2023-10-09T07:25:17;10.43;;;6.60;;
18399;SDS011;9326;49.468;11.008;2023-10-09T07:27:53;9.37;;;6.70;;
18399;SDS011;9326;49.468;11.008;2023-10-09T07:30:21;10.60;;;6.33;;
18399;SDS011;9326;49.468;11.008;2023-10-09T07:33:04;14.50;;;6.53;;
18399;SDS011;9326;49.468;11.008;2023-10-09T07:35:42;10.00;;;6.00;;
18399;SDS011;9326;49.468;11.008;2023-10-09T07:38:13;12.40;;;6.63;;
18399;SDS011;9326;49.468;11.008;2023-10-09T07:40:44;13.00;;;6.83;;
18399;SDS011;9326;49.468;11.008;2023-10-09T07:43:20;14.53;;;6.33;;
18399;SDS011;9326;49.468;11.008;2023-10-09T07:45:52;10.03;;;5.93;;
18399;SDS011;9326;49.468;11.008;2023-10-09T07:48:37;13.97;;;6.63;;
18399;SDS011;9326;49.468;11.008;2023-10-09T07:51:17;8.17;;;5.60;;
18399;SDS011;9326;49.468;11.008;2023-10-09T07:53:46;12.90;;;6.17;;
18399;SDS011;9326;49.468;11.008;2023-10-09T07:56:22;14.07;;;6.30;;
18399;SDS011;9326;49.468;11.008;2023-10-09T07:58:49;12.83;;;5.33;;
18399;SDS011;9326;49.468;11.008;2023-10-09T08:01:17;10.13;;;5.43;;
18399;SDS011;9326;49.468;11.008;2023-10-09T08:03:48;12.00;;;5.80;;
18399;SDS011;9326;49.468;11.008;2023-10-09T08:06:23;11.07;;;5.70;;
18399;SDS011;9326;49.468;11.008;2023-10-09T08:09:06;14.57;;;5.77;;
18399;SDS011;9326;49.468;11.008;2023-10-09T08:12:11;10.40;;;5.40;;
18399;SDS011;9326;49.468;11.008;2023-10-09T08:15:01;12.07;;;5.33;;
18399;SDS011;9326;49.468;11.008;2023-10-09T08:17:51;13.00;;;5.27;;
18399;SDS011;9326;49.468;11.008;2023-10-09T08:20:20;8.83;;;5.03;;
18399;SDS011;9326;49.468;11.008;2023-10-09T08:22:51;13.13;;;6.37;;
18399;SDS011;9326;49.468;11.008;2023-10-09T08:25:20;12.17;;;5.47;;
18399;SDS011;9326;49.468;11.008;2023-10-09T08:28:08;12.13;;;5.10;;
18399;SDS011;9326;49.468;11.008;2023-10-09T08:30:51;10.63;;;5.77;;
18399;SDS011;9326;49.468;11.008;2023-10-09T08:33:33;12.10;;;5.17;;
18399;SDS011;9326;49.468;11.008;2023-10-09T08:36:06;13.20;;;4.97;;
18399;SDS011;9326;49.468;11.008;2023-10-09T08:38:33;12.20;;;5.23;;
18399;SDS011;9326;49.468;11.008;2023-10-09T08:41:09;13.17;;;5.10;;
18399;SDS011;9326;49.468;11.008;2023-10-09T08:43:50;14.83;;;4.87;;
18399;SDS011;9326;49.468;11.008;2023-10-09T08:46:46;13.77;;;5.47;;
18399;SDS011;9326;49.468;11.008;2023-10-09T08:49:15;15.23;;;5.43;;
18399;SDS011;9326;49.468;11.008;2023-10-09T08:51:43;13.50;;;5.10;;
18399;SDS011;9326;49.468;11.008;2023-10-09T08:54:16;12.40;;;5.57;;
18399;SDS011;9326;49.468;11.008;2023-10-09T08:56:45;12.73;;;5.10;;
18399;SDS011;9326;49.468;11.008;2023-10-09T08:59:17;10.67;;;4.77;;
18399;SDS011;9326;49.468;11.008;2023-10-09T09:01:46;10.17;;;5.60;;
18399;SDS011;9326;49.468;11.008;2023-10-09T09:07:05;12.10;;;5.00;;
18399;SDS011;9326;49.468;11.008;2023-10-09T09:09:33;9.17;;;4.40;;
18399;SDS011;9326;49.468;11.008;2023-10-09T09:12:00;11.60;;;4.80;;
18399;SDS011;9326;49.468;11.008;2023-10-09T09:14:38;14.07;;;5.07;;
18399;SDS011;9326;49.468;11.008;2023-10-09T09:17:07;7.30;;;4.23;;
18399;SDS011;9326;49.468;11.008;2023-10-09T09:19:36;13.37;;;4.60;;
18399;SDS011;9326;49.468;11.008;2023-10-09T09:22:04;10.17;;;4.30;;
18399;SDS011;9326;49.468;11.008;2023-10-09T09:24:39;6.83;;;3.90;;
18399;SDS011;9326;49.468;11.008;2023-10-09T09:27:13;7.63;;;4.37;;
18399;SDS011;9326;49.468;11.008;2023-10-09T09:29:49;11.13;;;4.87;;
18399;SDS011;9326;49.468;11.008;2023-10-09T09:32:35;10.20;;;5.07;;
18399;SDS011;9326;49.468;11.008;2023-10-09T09:35:25;13.27;;;4.80;;
18399;SDS011;9326;49.468;11.008;2023-10-09T09:37:54;7.53;;;4.30;;
18399;SDS011;9326;49.468;11.008;2023-10-09T09:40:30;8.40;;;4.20;;
18399;SDS011;9326;49.468;11.008;2023-10-09T09:43:20;10.67;;;4.57;;
18399;SDS011;9326;49.468;11.008;2023-10-09T09:45:48;9.80;;;4.90;;
18399;SDS011;9326;49.468;11.008;2023-10-09T09:48:20;9.80;;;4.67;;
18399;SDS011;9326;49.468;11.008;2023-10-09T09:50:49;11.20;;;5.00;;
18399;SDS011;9326;49.468;11.008;2023-10-09T09:53:19;11.53;;;4.83;;
18399;SDS011;9326;49.468;11.008;2023-10-09T09:55:50;13.37;;;6.20;;
18399;SDS011;9326;49.468;11.008;2023-10-09T09:58:23;13.07;;;7.53;;
18399;SDS011;9326;49.468;11.008;2023-10-09T10:00:53;12.87;;;9.40;;
18399;SDS011;9326;49.468;11.008;2023-10-09T10:03:27;14.67;;;8.20;;
18399;SDS011;9326;49.468;11.008;2023-10-09T10:06:06;10.70;;;6.17;;
18399;SDS011;9326;49.468;11.008;2023-10-09T10:08:44;12.70;;;5.77;;
18399;SDS011;9326;49.468;11.008;2023-10-09T10:14:14;13.93;;;5.70;;
18399;SDS011;9326;49.468;11.008;2023-10-09T10:17:00;15.10;;;6.03;;
18399;SDS011;9326;49.468;11.008;2023-10-09T10:22:24;10.70;;;5.60;;
18399;SDS011;9326;49.468;11.008;2023-10-09T10:25:03;9.93;;;5.13;;
18399;SDS011;9326;49.468;11.008;2023-10-09T10:27:34;9.10;;;5.03;;
18399;SDS011;9326;49.468;11.008;2023-10-09T10:30:29;9.63;;;5.13;;
18399;SDS011;9326;49.468;11.008;2023-10-09T10:33:02;10.13;;;5.73;;
18399;SDS011;9326;49.468;11.008;2023-10-09T10:35:38;9.53;;;4.80;;
18399;SDS011;9326;49.468;11.008;2023-10-09T10:38:30;13.37;;;4.93;;
18399;SDS011;9326;49.468;11.008;2023-10-09T10:41:15;10.23;;;4.80;;
18399;SDS011;9326;49.468;11.008;2023-10-09T10:43:45;10.13;;;4.53;;
18399;SDS011;9326;49.468;11.008;2023-10-09T10:46:46;10.73;;;4.87;;
18399;SDS011;9326;49.468;11.008;2023-10-09T10:49:18;13.20;;;4.80;;
18399;SDS011;9326;49.468;11.008;2023-10-09T10:51:48;47.97;;;26.63;;
18399;SDS011;9326;49.468;11.008;2023-10-09T10:54:28;114.07;;;62.50;;
18399;SDS011;9326;49.468;11.008;2023-10-09T10:57:17;75.93;;;42.23;;
18399;SDS011;9326;49.468;11.008;2023-10-09T10:59:53;33.63;;;20.43;;
18399;SDS011;9326;49.468;11.008;2023-10-09T11:02:39;11.23;;;6.43;;
18399;SDS011;9326;49.468;11.008;2023-10-09T11:05:10;17.33;;;7.83;;
18399;SDS011;9326;49.468;11.008;2023-10-09T11:07:48;16.40;;;10.53;;
18399;SDS011;9326;49.468;11.008;2023-10-09T11:13:32;17.50;;;8.13;;
18399;SDS011;9326;49.468;11.008;2023-10-09T11:16:04;15.73;;;8.60;;
18399;SDS011;9326;49.468;11.008;2023-10-09T11:18:41;19.10;;;14.03;;
18399;SDS011;9326;49.468;11.008;2023-10-09T11:21:16;22.73;;;11.90;;
18399;SDS011;9326;49.468;11.008;2023-10-09T11:23:56;20.63;;;10.87;;
18399;SDS011;9326;49.468;11.008;2023-10-09T11:26:24;19.43;;;9.10;;
18399;SDS011;9326;49.468;11.008;2023-10-09T11:29:10;17.00;;;8.10;;
18399;SDS011;9326;49.468;11.008;2023-10-09T11:31:40;14.43;;;5.60;;
18399;SDS011;9326;49.468;11.008;2023-10-09T11:34:20;11.27;;;6.23;;
18399;SDS011;9326;49.468;11.008;2023-10-09T11:36:55;10.80;;;5.90;;
18399;SDS011;9326;49.468;11.008;2023-10-09T11:39:26;11.97;;;4.37;;
18399;SDS011;9326;49.468;11.008;2023-10-09T11:42:06;10.73;;;4.60;;
18399;SDS011;9326;49.468;11.008;2023-10-09T11:44:37;11.10;;;4.73;;
18399;SDS011;9326;49.468;11.008;2023-10-09T11:47:06;13.47;;;7.07;;
18399;SDS011;9326;49.468;11.008;2023-10-09T11:49:58;12.97;;;5.50;;
18399;SDS011;9326;49.468;11.008;2023-10-09T11:52:55;14.53;;;5.60;;
18399;SDS011;9326;49.468;11.008;2023-10-09T11:55:37;13.23;;;5.13;;
18399;SDS011;9326;49.468;11.008;2023-10-09T11:58:04;9.77;;;4.10;;
18399;SDS011;9326;49.468;11.008;2023-10-09T12:00:33;12.13;;;4.60;;
18399;SDS011;9326;49.468;11.008;2023-10-09T12:03:10;10.40;;;4.00;;
18399;SDS011;9326;49.468;11.008;2023-10-09T12:05:38;13.87;;;4.60;;
18399;SDS011;9326;49.468;11.008;2023-10-09T12:08:09;15.67;;;4.77;;
18399;SDS011;9326;49.468;11.008;2023-10-09T12:10:39;11.10;;;4.77;;
18399;SDS011;9326;49.468;11.008;2023-10-09T12:13:06;10.80;;;4.37;;
18399;SDS011;9326;49.468;11.008;2023-10-09T12:15:39;12.63;;;4.30;;
18399;SDS011;9326;49.468;11.008;2023-10-09T12:18:11;13.77;;;4.53;;
18399;SDS011;9326;49.468;11.008;2023-10-09T12:20:41;12.37;;;4.97;;
18399;SDS011;9326;49.468;11.008;2023-10-09T12:23:15;6.67;;;4.23;;
18399;SDS011;9326;49.468;11.008;2023-10-09T12:25:42;9.50;;;4.10;;
18399;SDS011;9326;49.468;11.008;2023-10-09T12:28:10;10.03;;;4.30;;
18399;SDS011;9326;49.468;11.008;2023-10-09T12:30:46;11.10;;;4.33;;
18399;SDS011;9326;49.468;11.008;2023-10-09T12:33:15;9.70;;;4.40;;
18399;SDS011;9326;49.468;11.008;2023-10-09T12:35:43;14.43;;;4.80;;
18399;SDS011;9326;49.468;11.008;2023-10-09T12:38:12;12.73;;;4.27;;
18399;SDS011;9326;49.468;11.008;2023-10-09T12:40:43;11.27;;;4.70;;
18399;SDS011;9326;49.468;11.008;2023-10-09T12:43:15;10.20;;;4.30;;
18399;SDS011;9326;49.468;11.008;2023-10-09T12:45:44;11.37;;;4.17;;
18399;SDS011;9326;49.468;11.008;2023-10-09T12:48:13;12.70;;;4.13;;
18399;SDS011;9326;49.468;11.008;2023-10-09T12:50:40;8.43;;;4.20;;
18399;SDS011;9326;49.468;11.008;2023-10-09T12:53:09;12.43;;;4.10;;
18399;SDS011;9326;49.468;11.008;2023-10-09T12:55:42;13.27;;;4.17;;
18399;SDS011;9326;49.468;11.008;2023-10-09T12:58:09;10.17;;;3.87;;
18399;SDS011;9326;49.468;11.008;2023-10-09T13:00:39;9.03;;;4.43;;
18399;SDS011;9326;49.468;11.008;2023-10-09T13:03:13;7.40;;;4.00;;
18399;SDS011;9326;49.468;11.008;2023-10-09T13:05:49;9.80;;;4.27;;
18399;SDS011;9326;49.468;11.008;2023-10-09T13:08:20;11.00;;;4.70;;
18399;SDS011;9326;49.468;11.008;2023-10-09T13:10:48;11.77;;;4.33;;
18399;SDS011;9326;49.468;11.008;2023-10-09T13:13:27;8.90;;;4.40;;
18399;SDS011;9326;49.468;11.008;2023-10-09T13:16:08;10.23;;;4.60;;
18399;SDS011;9326;49.468;11.008;2023-10-09T13:18:37;8.47;;;3.67;;
18399;SDS011;9326;49.468;11.008;2023-10-09T13:21:06;13.30;;;4.10;;
18399;SDS011;9326;49.468;11.008;2023-10-09T13:23:33;15.70;;;4.53;;
18399;SDS011;9326;49.468;11.008;2023-10-09T13:26:07;10.53;;;4.23;;
18399;SDS011;9326;49.468;11.008;2023-10-09T13:28:44;10.00;;;4.47;;
18399;SDS011;9326;49.468;11.008;2023-10-09T13:31:12;11.37;;;3.83;;
18399;SDS011;9326;49.468;11.008;2023-10-09T13:33:40;11.27;;;4.17;;
18399;SDS011;9326;49.468;11.008;2023-10-09T13:36:09;10.70;;;4.07;;
18399;SDS011;9326;49.468;11.008;2023-10-09T13:38:44;6.63;;;3.80;;
18399;SDS011;9326;49.468;11.008;2023-10-09T13:41:11;13.10;;;4.43;;
18399;SDS011;9326;49.468;11.008;2023-10-09T13:43:43;10.13;;;3.90;;
18399;SDS011;9326;49.468;11.008;2023-10-09T13:46:10;13.57;;;4.00;;
18399;SDS011;9326;49.468;11.008;2023-10-09T13:48:39;9.00;;;4.03;;
18399;SDS011;9326;49.468;11.008;2023-10-09T13:51:09;9.53;;;4.30;;
18399;SDS011;9326;49.468;11.008;2023-10-09T13:53:42;11.93;;;4.20;;
18399;SDS011;9326;49.468;11.008;2023-10-09T13:56:13;11.23;;;4.27;;
18399;SDS011;9326;49.468;11.008;2023-10-09T13:58:40;8.30;;;4.07;;
18399;SDS011;9326;49.468;11.008;2023-10-09T14:01:08;10.37;;;4.60;;
18399;SDS011;9326;49.468;11.008;2023-10-09T14:03:35;11.90;;;4.10;;
18399;SDS011;9326;49.468;11.008;2023-10-09T14:06:04;7.40;;;4.10;;
18399;SDS011;9326;49.468;11.008;2023-10-09T14:08:38;7.80;;;3.87;;
18399;SDS011;9326;49.468;11.008;2023-10-09T14:11:07;8.40;;;4.20;;
18399;SDS011;9326;49.468;11.008;2023-10-09T14:13:38;11.83;;;4.93;;
18399;SDS011;9326;49.468;11.008;2023-10-09T14:16:05;9.37;;;4.23;;
18399;SDS011;9326;49.468;11.008;2023-10-09T14:18:48;7.27;;;4.30;;
18399;SDS011;9326;49.468;11.008;2023-10-09T14:21:18;8.27;;;4.23;;
18399;SDS011;9326;49.468;11.008;2023-10-09T14:23:51;7.07;;;4.33;;
18399;SDS011;9326;49.468;11.008;2023-10-09T14:26:22;9.87;;;4.10;;
18399;SDS011;9326;49.468;11.008;2023-10-09T14:28:55;8.40;;;4.07;;
18399;SDS011;9326;49.468;11.008;2023-10-09T14:31:23;8.53;;;4.37;;
18399;SDS011;9326;49.468;11.008;2023-10-09T14:33:53;9.23;;;4.23;;
18399;SDS011;9326;49.468;11.008;2023-10-09T14:36:20;7.13;;;4.00;;
18399;SDS011;9326;49.468;11.008;2023-10-09T14:38:48;10.13;;;4.43;;
18399;SDS011;9326;49.468;11.008;2023-10-09T14:41:19;9.03;;;4.80;;
18399;SDS011;9326;49.468;11.008;2023-10-09T14:43:48;8.67;;;4.17;;
18399;SDS011;9326;49.468;11.008;2023-10-09T14:46:17;8.00;;;4.60;;
18399;SDS011;9326;49.468;11.008;2023-10-09T14:48:50;7.67;;;4.10;;
18399;SDS011;9326;49.468;11.008;2023-10-09T14:51:18;8.33;;;3.67;;
18399;SDS011;9326;49.468;11.008;2023-10-09T14:53:51;9.50;;;4.30;;
18399;SDS011;9326;49.468;11.008;2023-10-09T14:56:20;6.60;;;3.93;;
18399;SDS011;9326;49.468;11.008;2023-10-09T14:58:53;8.90;;;4.30;;
18399;SDS011;9326;49.468;11.008;2023-10-09T15:01:21;8.83;;;4.27;;
18399;SDS011;9326;49.468;11.008;2023-10-09T15:03:50;8.73;;;4.20;;
18399;SDS011;9326;49.468;11.008;2023-10-09T15:06:20;7.80;;;4.17;;
18399;SDS011;9326;49.468;11.008;2023-10-09T15:08:48;11.97;;;4.17;;
18399;SDS011;9326;49.468;11.008;2023-10-09T15:11:15;11.53;;;4.50;;
18399;SDS011;9326;49.468;11.008;2023-10-09T15:13:44;8.77;;;4.30;;
18399;SDS011;9326;49.468;11.008;2023-10-09T15:16:12;8.47;;;4.50;;
18399;SDS011;9326;49.468;11.008;2023-10-09T15:18:39;9.43;;;4.03;;
18399;SDS011;9326;49.468;11.008;2023-10-09T15:21:06;9.57;;;4.30;;
18399;SDS011;9326;49.468;11.008;2023-10-09T15:23:34;7.03;;;4.00;;
18399;SDS011;9326;49.468;11.008;2023-10-09T15:26:02;9.93;;;4.60;;
18399;SDS011;9326;49.468;11.008;2023-10-09T15:28:31;8.70;;;4.37;;
18399;SDS011;9326;49.468;11.008;2023-10-09T15:31:00;8.87;;;4.17;;